sensor_id;sensor_type;location;lat;lon;timestamp;temperature;humidity
76967;DHT22;65904;52.278;20.972;2023-12-22T00:01:24;5.20;99.90
76967;DHT22;65904;52.278;20.972;2023-12-22T00:04:10;5.20;99.90
76967;DHT22;65904;52.278;20.972;2023-12-22T00:06:58;5.30;99.90
76967;DHT22;65904;52.278;20.972;2023-12-22T00:09:44;5.30;99.90
76967;DHT22;65904;52.278;20.972;2023-12-22T00:12:31;5.40;99.90
76967;DHT22;65904;52.278;20.972;2023-12-22T00:15:17;5.40;99.90
76967;DHT22;65904;52.278;20.972;2023-12-22T00:18:03;5.40;99.90
76967;DHT22;65904;52.278;20.972;2023-12-22T00:20:50;5.40;99.90
76967;DHT22;65904;52.278;20.972;2023-12-22T00:23:37;5.40;99.90
76967;DHT22;65904;52.278;20.972;2023-12-22T00:26:23;5.40;99.90
76967;DHT22;65904;52.278;20.972;2023-12-22T00:29:09;5.40;99.90
76967;DHT22;65904;52.278;20.972;2023-12-22T00:31:55;5.30;99.90
76967;DHT22;65904;52.278;20.972;2023-12-22T00:34:41;5.30;99.90
76967;DHT22;65904;52.278;20.972;2023-12-22T00:37:27;5.30;99.90
76967;DHT22;65904;52.278;20.972;2023-12-22T00:40:14;5.30;99.90
76967;DHT22;65904;52.278;20.972;2023-12-22T00:43:01;5.40;99.90
76967;DHT22;65904;52.278;20.972;2023-12-22T00:45:47;5.30;99.90
76967;DHT22;65904;52.278;20.972;2023-12-22T00:48:33;5.30;99.90
76967;DHT22;65904;52.278;20.972;2023-12-22T00:51:19;5.30;99.90
76967;DHT22;65904;52.278;20.972;2023-12-22T00:54:05;5.30;99.90
76967;DHT22;65904;52.278;20.972;2023-12-22T00:56:53;5.30;99.90
76967;DHT22;65904;52.278;20.972;2023-12-22T00:59:39;5.20;99.90
76967;DHT22;65904;52.278;20.972;2023-12-22T01:02:29;5.20;99.90
76967;DHT22;65904;52.278;20.972;2023-12-22T01:05:16;5.20;99.90
76967;DHT22;65904;52.278;20.972;2023-12-22T01:08:02;5.20;99.90
76967;DHT22;65904;52.278;20.972;2023-12-22T01:10:48;5.20;99.90
76967;DHT22;65904;52.278;20.972;2023-12-22T01:13:35;5.20;99.90
76967;DHT22;65904;52.278;20.972;2023-12-22T01:16:21;5.20;99.90
76967;DHT22;65904;52.278;20.972;2023-12-22T01:19:08;5.10;99.90
76967;DHT22;65904;52.278;20.972;2023-12-22T01:21:54;5.10;99.90
76967;DHT22;65904;52.278;20.972;2023-12-22T01:24:40;5.10;99.90
76967;DHT22;65904;52.278;20.972;2023-12-22T01:27:28;5.10;99.90
76967;DHT22;65904;52.278;20.972;2023-12-22T01:30:16;5.10;99.90
76967;DHT22;65904;52.278;20.972;2023-12-22T01:33:02;5.20;99.90
76967;DHT22;65904;52.278;20.972;2023-12-22T01:35:48;5.20;99.90
76967;DHT22;65904;52.278;20.972;2023-12-22T01:38:34;5.20;99.90
76967;DHT22;65904;52.278;20.972;2023-12-22T01:41:21;5.10;99.90
76967;DHT22;65904;52.278;20.972;2023-12-22T01:44:07;5.10;99.90
76967;DHT22;65904;52.278;20.972;2023-12-22T01:46:55;5.20;99.90
76967;DHT22;65904;52.278;20.972;2023-12-22T01:49:41;5.20;99.90
76967;DHT22;65904;52.278;20.972;2023-12-22T01:52:27;5.20;99.90
76967;DHT22;65904;52.278;20.972;2023-12-22T01:55:13;5.20;99.90
76967;DHT22;65904;52.278;20.972;2023-12-22T01:58:01;5.20;99.90
76967;DHT22;65904;52.278;20.972;2023-12-22T02:00:47;5.20;99.90
76967;DHT22;65904;52.278;20.972;2023-12-22T02:03:34;5.20;99.90
76967;DHT22;65904;52.278;20.972;2023-12-22T02:06:21;5.20;99.90
76967;DHT22;65904;52.278;20.972;2023-12-22T02:09:08;5.20;99.90
76967;DHT22;65904;52.278;20.972;2023-12-22T02:11:54;5.20;99.90
76967;DHT22;65904;52.278;20.972;2023-12-22T02:14:40;5.30;99.90
76967;DHT22;65904;52.278;20.972;2023-12-22T02:17:34;5.30;99.90
76967;DHT22;65904;52.278;20.972;2023-12-22T02:20:22;5.30;99.90
76967;DHT22;65904;52.278;20.972;2023-12-22T02:23:11;5.20;99.90
76967;DHT22;65904;52.278;20.972;2023-12-22T02:26:06;5.30;99.90
76967;DHT22;65904;52.278;20.972;2023-12-22T02:28:54;5.30;99.90
76967;DHT22;65904;52.278;20.972;2023-12-22T02:31:43;5.30;99.90
76967;DHT22;65904;52.278;20.972;2023-12-22T02:34:35;5.30;99.90
76967;DHT22;65904;52.278;20.972;2023-12-22T02:37:22;5.30;99.90
76967;DHT22;65904;52.278;20.972;2023-12-22T02:40:12;5.30;99.90
76967;DHT22;65904;52.278;20.972;2023-12-22T02:42:59;5.20;99.90
76967;DHT22;65904;52.278;20.972;2023-12-22T02:45:50;5.30;99.90
76967;DHT22;65904;52.278;20.972;2023-12-22T02:48:36;5.20;99.90
76967;DHT22;65904;52.278;20.972;2023-12-22T02:51:22;5.20;99.90
76967;DHT22;65904;52.278;20.972;2023-12-22T02:54:08;5.20;99.90
76967;DHT22;65904;52.278;20.972;2023-12-22T02:56:55;5.20;99.90
76967;DHT22;65904;52.278;20.972;2023-12-22T02:59:41;5.20;99.90
76967;DHT22;65904;52.278;20.972;2023-12-22T03:02:28;5.30;99.90
76967;DHT22;65904;52.278;20.972;2023-12-22T03:05:14;5.30;99.90
76967;DHT22;65904;52.278;20.972;2023-12-22T03:08:00;5.30;99.90
76967;DHT22;65904;52.278;20.972;2023-12-22T03:10:46;5.30;99.90
76967;DHT22;65904;52.278;20.972;2023-12-22T03:13:34;5.20;99.90
76967;DHT22;65904;52.278;20.972;2023-12-22T03:16:20;5.20;99.90
76967;DHT22;65904;52.278;20.972;2023-12-22T03:19:06;5.00;99.90
76967;DHT22;65904;52.278;20.972;2023-12-22T03:21:52;4.80;99.90
76967;DHT22;65904;52.278;20.972;2023-12-22T03:24:39;4.70;99.90
76967;DHT22;65904;52.278;20.972;2023-12-22T03:27:24;4.60;99.90
76967;DHT22;65904;52.278;20.972;2023-12-22T03:30:13;4.50;99.90
76967;DHT22;65904;52.278;20.972;2023-12-22T03:32:59;4.50;99.90
76967;DHT22;65904;52.278;20.972;2023-12-22T03:35:45;4.40;99.90
76967;DHT22;65904;52.278;20.972;2023-12-22T03:38:32;4.40;99.90
76967;DHT22;65904;52.278;20.972;2023-12-22T03:41:18;4.50;99.90
76967;DHT22;65904;52.278;20.972;2023-12-22T03:44:04;4.50;99.90
76967;DHT22;65904;52.278;20.972;2023-12-22T03:46:51;4.60;99.90
76967;DHT22;65904;52.278;20.972;2023-12-22T03:49:38;4.60;99.90
76967;DHT22;65904;52.278;20.972;2023-12-22T03:52:24;4.60;99.90
76967;DHT22;65904;52.278;20.972;2023-12-22T03:55:10;4.50;99.90
76967;DHT22;65904;52.278;20.972;2023-12-22T03:57:56;4.50;99.90
76967;DHT22;65904;52.278;20.972;2023-12-22T04:00:42;4.50;99.90
76967;DHT22;65904;52.278;20.972;2023-12-22T04:03:29;4.50;99.90
76967;DHT22;65904;52.278;20.972;2023-12-22T04:06:15;4.40;99.90
76967;DHT22;65904;52.278;20.972;2023-12-22T04:09:02;4.40;99.90
76967;DHT22;65904;52.278;20.972;2023-12-22T04:11:48;4.40;99.90
76967;DHT22;65904;52.278;20.972;2023-12-22T04:14:35;4.40;99.90
76967;DHT22;65904;52.278;20.972;2023-12-22T04:17:20;4.40;99.90
76967;DHT22;65904;52.278;20.972;2023-12-22T04:20:08;4.40;99.90
76967;DHT22;65904;52.278;20.972;2023-12-22T04:22:54;4.40;99.90
76967;DHT22;65904;52.278;20.972;2023-12-22T04:25:41;4.50;99.90
76967;DHT22;65904;52.278;20.972;2023-12-22T04:28:27;4.50;99.90
76967;DHT22;65904;52.278;20.972;2023-12-22T04:31:14;4.50;99.90
76967;DHT22;65904;52.278;20.972;2023-12-22T04:33:59;4.50;99.90
76967;DHT22;65904;52.278;20.972;2023-12-22T04:36:47;4.50;99.90
76967;DHT22;65904;52.278;20.972;2023-12-22T04:39:33;4.50;99.90
76967;DHT22;65904;52.278;20.972;2023-12-22T04:42:19;4.50;99.90
76967;DHT22;65904;52.278;20.972;2023-12-22T04:45:06;4.50;99.90
76967;DHT22;65904;52.278;20.972;2023-12-22T04:47:52;4.40;99.90
76967;DHT22;65904;52.278;20.972;2023-12-22T04:50:38;4.40;99.90
76967;DHT22;65904;52.278;20.972;2023-12-22T04:53:26;4.50;99.90
76967;DHT22;65904;52.278;20.972;2023-12-22T04:56:12;4.40;99.90
76967;DHT22;65904;52.278;20.972;2023-12-22T04:58:58;4.30;99.90
76967;DHT22;65904;52.278;20.972;2023-12-22T05:01:45;4.30;99.90
76967;DHT22;65904;52.278;20.972;2023-12-22T05:04:31;4.20;99.90
76967;DHT22;65904;52.278;20.972;2023-12-22T05:07:17;4.20;99.90
76967;DHT22;65904;52.278;20.972;2023-12-22T05:10:05;4.10;99.90
76967;DHT22;65904;52.278;20.972;2023-12-22T05:12:51;4.10;99.90
76967;DHT22;65904;52.278;20.972;2023-12-22T05:15:37;4.10;99.90
76967;DHT22;65904;52.278;20.972;2023-12-22T05:18:23;4.10;99.90
76967;DHT22;65904;52.278;20.972;2023-12-22T05:21:12;4.10;99.90
76967;DHT22;65904;52.278;20.972;2023-12-22T05:23:58;4.10;99.90
76967;DHT22;65904;52.278;20.972;2023-12-22T05:26:46;4.10;99.90
76967;DHT22;65904;52.278;20.972;2023-12-22T05:29:32;4.10;99.90
76967;DHT22;65904;52.278;20.972;2023-12-22T05:32:18;4.20;99.90
76967;DHT22;65904;52.278;20.972;2023-12-22T05:35:05;4.10;99.90
76967;DHT22;65904;52.278;20.972;2023-12-22T05:37:51;4.10;99.90
76967;DHT22;65904;52.278;20.972;2023-12-22T05:40:37;4.10;99.90
76967;DHT22;65904;52.278;20.972;2023-12-22T05:43:24;4.20;99.90
76967;DHT22;65904;52.278;20.972;2023-12-22T05:46:10;4.20;99.90
76967;DHT22;65904;52.278;20.972;2023-12-22T05:48:57;4.10;99.90
76967;DHT22;65904;52.278;20.972;2023-12-22T05:51:43;4.10;99.90
76967;DHT22;65904;52.278;20.972;2023-12-22T05:54:30;4.10;99.90
76967;DHT22;65904;52.278;20.972;2023-12-22T05:57:16;4.00;99.90
76967;DHT22;65904;52.278;20.972;2023-12-22T06:00:05;4.00;99.90
76967;DHT22;65904;52.278;20.972;2023-12-22T06:02:54;4.00;99.90
76967;DHT22;65904;52.278;20.972;2023-12-22T06:05:41;4.00;99.90
76967;DHT22;65904;52.278;20.972;2023-12-22T06:08:27;4.00;99.90
76967;DHT22;65904;52.278;20.972;2023-12-22T06:11:14;4.00;99.90
76967;DHT22;65904;52.278;20.972;2023-12-22T06:14:00;4.00;99.90
76967;DHT22;65904;52.278;20.972;2023-12-22T06:16:48;4.00;99.90
76967;DHT22;65904;52.278;20.972;2023-12-22T06:19:35;4.10;99.90
76967;DHT22;65904;52.278;20.972;2023-12-22T06:22:22;4.20;99.90
76967;DHT22;65904;52.278;20.972;2023-12-22T06:25:08;4.20;99.90
76967;DHT22;65904;52.278;20.972;2023-12-22T06:27:55;4.30;99.90
76967;DHT22;65904;52.278;20.972;2023-12-22T06:30:42;4.30;99.90
76967;DHT22;65904;52.278;20.972;2023-12-22T06:33:30;4.40;99.90
76967;DHT22;65904;52.278;20.972;2023-12-22T06:36:20;4.40;99.90
76967;DHT22;65904;52.278;20.972;2023-12-22T06:39:06;4.40;99.90
76967;DHT22;65904;52.278;20.972;2023-12-22T06:41:52;4.40;99.90
76967;DHT22;65904;52.278;20.972;2023-12-22T06:44:41;4.40;99.90
76967;DHT22;65904;52.278;20.972;2023-12-22T06:47:28;4.50;99.90
76967;DHT22;65904;52.278;20.972;2023-12-22T06:50:15;4.50;99.90
76967;DHT22;65904;52.278;20.972;2023-12-22T06:53:01;4.50;99.90
76967;DHT22;65904;52.278;20.972;2023-12-22T06:56:15;4.50;99.90
76967;DHT22;65904;52.278;20.972;2023-12-22T06:59:02;4.50;99.90
76967;DHT22;65904;52.278;20.972;2023-12-22T07:01:48;4.60;99.90
76967;DHT22;65904;52.278;20.972;2023-12-22T07:04:34;4.60;99.90
76967;DHT22;65904;52.278;20.972;2023-12-22T07:07:22;4.60;99.90
76967;DHT22;65904;52.278;20.972;2023-12-22T07:10:09;4.60;99.90
76967;DHT22;65904;52.278;20.972;2023-12-22T07:12:58;4.70;99.90
76967;DHT22;65904;52.278;20.972;2023-12-22T07:15:44;4.70;99.90
76967;DHT22;65904;52.278;20.972;2023-12-22T07:18:30;4.60;99.90
76967;DHT22;65904;52.278;20.972;2023-12-22T07:21:16;4.60;99.90
76967;DHT22;65904;52.278;20.972;2023-12-22T07:24:05;4.50;99.90
76967;DHT22;65904;52.278;20.972;2023-12-22T07:26:51;4.50;99.90
76967;DHT22;65904;52.278;20.972;2023-12-22T07:29:37;4.50;99.90
76967;DHT22;65904;52.278;20.972;2023-12-22T07:32:24;4.50;99.90
76967;DHT22;65904;52.278;20.972;2023-12-22T07:35:10;4.40;99.90
76967;DHT22;65904;52.278;20.972;2023-12-22T07:37:56;4.40;99.90
76967;DHT22;65904;52.278;20.972;2023-12-22T07:40:44;4.40;99.90
76967;DHT22;65904;52.278;20.972;2023-12-22T07:43:30;4.30;99.90
76967;DHT22;65904;52.278;20.972;2023-12-22T07:46:17;4.30;99.90
76967;DHT22;65904;52.278;20.972;2023-12-22T07:49:03;4.20;99.90
76967;DHT22;65904;52.278;20.972;2023-12-22T07:51:52;4.20;99.90
76967;DHT22;65904;52.278;20.972;2023-12-22T07:54:38;4.10;99.90
76967;DHT22;65904;52.278;20.972;2023-12-22T07:57:26;4.30;99.90
76967;DHT22;65904;52.278;20.972;2023-12-22T08:00:13;4.50;99.90
76967;DHT22;65904;52.278;20.972;2023-12-22T08:03:00;4.70;99.90
76967;DHT22;65904;52.278;20.972;2023-12-22T08:05:46;4.70;99.90
76967;DHT22;65904;52.278;20.972;2023-12-22T08:08:32;4.80;99.90
76967;DHT22;65904;52.278;20.972;2023-12-22T08:11:19;4.70;99.90
76967;DHT22;65904;52.278;20.972;2023-12-22T08:14:07;4.70;99.90
76967;DHT22;65904;52.278;20.972;2023-12-22T08:16:53;4.70;99.90
76967;DHT22;65904;52.278;20.972;2023-12-22T08:19:39;4.70;99.90
76967;DHT22;65904;52.278;20.972;2023-12-22T08:22:27;4.60;99.90
76967;DHT22;65904;52.278;20.972;2023-12-22T08:25:14;4.70;99.90
76967;DHT22;65904;52.278;20.972;2023-12-22T08:28:00;4.70;99.90
76967;DHT22;65904;52.278;20.972;2023-12-22T08:30:48;4.70;99.90
76967;DHT22;65904;52.278;20.972;2023-12-22T08:33:34;4.70;99.90
76967;DHT22;65904;52.278;20.972;2023-12-22T08:36:20;4.60;99.90
76967;DHT22;65904;52.278;20.972;2023-12-22T08:39:06;4.70;99.90
76967;DHT22;65904;52.278;20.972;2023-12-22T08:41:52;4.70;99.90
76967;DHT22;65904;52.278;20.972;2023-12-22T08:44:38;4.70;99.90
76967;DHT22;65904;52.278;20.972;2023-12-22T08:47:26;4.70;99.90
76967;DHT22;65904;52.278;20.972;2023-12-22T08:50:12;4.70;99.90
76967;DHT22;65904;52.278;20.972;2023-12-22T08:52:59;4.90;99.90
76967;DHT22;65904;52.278;20.972;2023-12-22T08:55:44;4.80;99.90
76967;DHT22;65904;52.278;20.972;2023-12-22T08:58:31;4.80;99.90
76967;DHT22;65904;52.278;20.972;2023-12-22T09:01:17;5.00;99.90
76967;DHT22;65904;52.278;20.972;2023-12-22T09:04:05;5.00;99.90
76967;DHT22;65904;52.278;20.972;2023-12-22T09:06:51;4.90;99.90
76967;DHT22;65904;52.278;20.972;2023-12-22T09:09:38;5.10;99.90
76967;DHT22;65904;52.278;20.972;2023-12-22T09:12:24;5.20;99.90
76967;DHT22;65904;52.278;20.972;2023-12-22T09:15:10;5.20;99.90
76967;DHT22;65904;52.278;20.972;2023-12-22T09:17:57;4.90;99.90
76967;DHT22;65904;52.278;20.972;2023-12-22T09:20:45;4.70;99.90
76967;DHT22;65904;52.278;20.972;2023-12-22T09:23:31;4.70;99.90
76967;DHT22;65904;52.278;20.972;2023-12-22T09:26:17;4.80;99.90
76967;DHT22;65904;52.278;20.972;2023-12-22T09:29:03;5.00;99.90
76967;DHT22;65904;52.278;20.972;2023-12-22T09:31:49;5.20;99.90
76967;DHT22;65904;52.278;20.972;2023-12-22T09:34:36;5.60;99.90
76967;DHT22;65904;52.278;20.972;2023-12-22T09:37:23;5.80;99.90
76967;DHT22;65904;52.278;20.972;2023-12-22T09:40:10;5.50;99.90
76967;DHT22;65904;52.278;20.972;2023-12-22T09:42:57;5.40;99.90
76967;DHT22;65904;52.278;20.972;2023-12-22T09:45:45;5.50;99.90
76967;DHT22;65904;52.278;20.972;2023-12-22T09:48:33;5.60;99.90
76967;DHT22;65904;52.278;20.972;2023-12-22T09:51:20;5.40;99.90
76967;DHT22;65904;52.278;20.972;2023-12-22T09:54:09;5.20;99.90
76967;DHT22;65904;52.278;20.972;2023-12-22T09:56:55;5.10;99.90
76967;DHT22;65904;52.278;20.972;2023-12-22T09:59:43;5.00;99.90
76967;DHT22;65904;52.278;20.972;2023-12-22T10:02:29;4.80;99.90
76967;DHT22;65904;52.278;20.972;2023-12-22T10:05:16;4.60;99.90
76967;DHT22;65904;52.278;20.972;2023-12-22T10:08:04;4.50;99.90
76967;DHT22;65904;52.278;20.972;2023-12-22T10:10:53;4.40;99.90
76967;DHT22;65904;52.278;20.972;2023-12-22T10:13:41;3.70;99.90
76967;DHT22;65904;52.278;20.972;2023-12-22T10:16:28;2.80;99.90
76967;DHT22;65904;52.278;20.972;2023-12-22T10:19:14;2.30;99.90
76967;DHT22;65904;52.278;20.972;2023-12-22T10:22:00;2.10;99.90
76967;DHT22;65904;52.278;20.972;2023-12-22T10:24:46;1.90;99.90
76967;DHT22;65904;52.278;20.972;2023-12-22T10:27:35;1.90;99.90
76967;DHT22;65904;52.278;20.972;2023-12-22T10:30:22;1.70;99.90
76967;DHT22;65904;52.278;20.972;2023-12-22T10:33:09;1.50;99.90
76967;DHT22;65904;52.278;20.972;2023-12-22T10:35:55;1.30;99.90
76967;DHT22;65904;52.278;20.972;2023-12-22T10:38:42;1.10;99.90
76967;DHT22;65904;52.278;20.972;2023-12-22T10:41:29;0.90;99.90
76967;DHT22;65904;52.278;20.972;2023-12-22T10:44:17;0.90;99.90
76967;DHT22;65904;52.278;20.972;2023-12-22T10:47:05;0.90;99.90
76967;DHT22;65904;52.278;20.972;2023-12-22T10:49:51;0.90;99.90
76967;DHT22;65904;52.278;20.972;2023-12-22T10:52:38;0.90;99.90
76967;DHT22;65904;52.278;20.972;2023-12-22T10:55:24;0.80;99.90
76967;DHT22;65904;52.278;20.972;2023-12-22T10:58:10;0.90;99.90
76967;DHT22;65904;52.278;20.972;2023-12-22T11:00:58;0.90;99.90
76967;DHT22;65904;52.278;20.972;2023-12-22T11:03:48;1.00;99.90
76967;DHT22;65904;52.278;20.972;2023-12-22T11:06:37;1.10;99.90
76967;DHT22;65904;52.278;20.972;2023-12-22T11:09:24;1.30;99.90
76967;DHT22;65904;52.278;20.972;2023-12-22T11:12:13;1.30;99.90
76967;DHT22;65904;52.278;20.972;2023-12-22T11:15:00;1.60;99.90
76967;DHT22;65904;52.278;20.972;2023-12-22T11:17:51;3.10;99.90
76967;DHT22;65904;52.278;20.972;2023-12-22T11:20:38;4.50;99.90
76967;DHT22;65904;52.278;20.972;2023-12-22T11:23:26;4.90;99.90
76967;DHT22;65904;52.278;20.972;2023-12-22T11:26:13;4.40;99.90
76967;DHT22;65904;52.278;20.972;2023-12-22T11:29:01;3.90;99.90
76967;DHT22;65904;52.278;20.972;2023-12-22T11:31:50;3.90;99.90
76967;DHT22;65904;52.278;20.972;2023-12-22T11:34:40;3.70;99.90
76967;DHT22;65904;52.278;20.972;2023-12-22T11:37:27;3.50;99.90
76967;DHT22;65904;52.278;20.972;2023-12-22T11:40:14;3.50;99.90
76967;DHT22;65904;52.278;20.972;2023-12-22T11:43:01;3.70;99.90
76967;DHT22;65904;52.278;20.972;2023-12-22T11:45:49;3.80;99.90
76967;DHT22;65904;52.278;20.972;2023-12-22T11:48:35;3.50;99.90
76967;DHT22;65904;52.278;20.972;2023-12-22T11:51:23;3.20;99.90
76967;DHT22;65904;52.278;20.972;2023-12-22T11:54:48;3.00;99.90
76967;DHT22;65904;52.278;20.972;2023-12-22T11:57:37;2.70;99.90
76967;DHT22;65904;52.278;20.972;2023-12-22T12:00:37;2.50;99.90
76967;DHT22;65904;52.278;20.972;2023-12-22T12:03:24;2.50;99.90
76967;DHT22;65904;52.278;20.972;2023-12-22T12:06:21;2.50;99.90
76967;DHT22;65904;52.278;20.972;2023-12-22T12:09:10;2.50;99.90
76967;DHT22;65904;52.278;20.972;2023-12-22T12:12:12;2.50;99.90
76967;DHT22;65904;52.278;20.972;2023-12-22T12:15:06;2.50;99.90
76967;DHT22;65904;52.278;20.972;2023-12-22T12:17:54;2.40;99.90
76967;DHT22;65904;52.278;20.972;2023-12-22T12:20:40;2.40;99.90
76967;DHT22;65904;52.278;20.972;2023-12-22T12:23:26;2.40;99.90
76967;DHT22;65904;52.278;20.972;2023-12-22T12:26:15;2.40;99.90
76967;DHT22;65904;52.278;20.972;2023-12-22T12:29:01;2.50;99.90
76967;DHT22;65904;52.278;20.972;2023-12-22T12:31:48;2.50;99.90
76967;DHT22;65904;52.278;20.972;2023-12-22T12:34:34;2.50;99.90
76967;DHT22;65904;52.278;20.972;2023-12-22T12:37:21;2.50;99.90
76967;DHT22;65904;52.278;20.972;2023-12-22T12:40:11;2.50;99.90
76967;DHT22;65904;52.278;20.972;2023-12-22T12:42:59;2.50;99.90
76967;DHT22;65904;52.278;20.972;2023-12-22T12:45:45;2.50;99.90
76967;DHT22;65904;52.278;20.972;2023-12-22T12:48:32;2.30;99.90
76967;DHT22;65904;52.278;20.972;2023-12-22T12:51:18;2.30;99.90
76967;DHT22;65904;52.278;20.972;2023-12-22T12:54:05;2.30;99.90
76967;DHT22;65904;52.278;20.972;2023-12-22T12:56:51;2.30;99.90
76967;DHT22;65904;52.278;20.972;2023-12-22T12:59:38;2.30;99.90
76967;DHT22;65904;52.278;20.972;2023-12-22T13:02:24;2.20;99.90
76967;DHT22;65904;52.278;20.972;2023-12-22T13:05:19;2.10;99.90
76967;DHT22;65904;52.278;20.972;2023-12-22T13:08:10;2.10;99.90
76967;DHT22;65904;52.278;20.972;2023-12-22T13:11:00;2.00;99.90
76967;DHT22;65904;52.278;20.972;2023-12-22T13:13:47;2.00;99.90
76967;DHT22;65904;52.278;20.972;2023-12-22T13:16:35;2.00;99.90
76967;DHT22;65904;52.278;20.972;2023-12-22T13:19:21;2.00;99.90
76967;DHT22;65904;52.278;20.972;2023-12-22T13:22:08;2.00;99.90
76967;DHT22;65904;52.278;20.972;2023-12-22T13:24:55;2.10;99.90
76967;DHT22;65904;52.278;20.972;2023-12-22T13:27:46;2.10;99.90
76967;DHT22;65904;52.278;20.972;2023-12-22T13:30:33;2.10;99.90
76967;DHT22;65904;52.278;20.972;2023-12-22T13:33:20;2.00;99.90
76967;DHT22;65904;52.278;20.972;2023-12-22T13:36:06;2.00;99.90
76967;DHT22;65904;52.278;20.972;2023-12-22T13:38:54;2.00;99.90
76967;DHT22;65904;52.278;20.972;2023-12-22T13:41:41;2.00;99.90
76967;DHT22;65904;52.278;20.972;2023-12-22T13:44:30;2.00;99.90
76967;DHT22;65904;52.278;20.972;2023-12-22T13:47:16;1.90;99.90
76967;DHT22;65904;52.278;20.972;2023-12-22T13:50:05;1.90;99.90
76967;DHT22;65904;52.278;20.972;2023-12-22T13:53:07;1.90;99.90
76967;DHT22;65904;52.278;20.972;2023-12-22T13:55:54;1.90;99.90
76967;DHT22;65904;52.278;20.972;2023-12-22T13:58:44;1.90;99.90
76967;DHT22;65904;52.278;20.972;2023-12-22T14:01:31;1.90;99.90
76967;DHT22;65904;52.278;20.972;2023-12-22T14:04:17;1.90;99.90
76967;DHT22;65904;52.278;20.972;2023-12-22T14:07:04;1.80;99.90
76967;DHT22;65904;52.278;20.972;2023-12-22T14:09:50;1.80;99.90
76967;DHT22;65904;52.278;20.972;2023-12-22T14:12:36;1.80;99.90
76967;DHT22;65904;52.278;20.972;2023-12-22T14:15:24;1.80;99.90
76967;DHT22;65904;52.278;20.972;2023-12-22T14:18:13;1.80;99.90
76967;DHT22;65904;52.278;20.972;2023-12-22T14:20:59;1.70;99.90
76967;DHT22;65904;52.278;20.972;2023-12-22T14:23:47;1.70;99.90
76967;DHT22;65904;52.278;20.972;2023-12-22T14:26:33;1.70;99.90
76967;DHT22;65904;52.278;20.972;2023-12-22T14:29:34;1.70;99.90
76967;DHT22;65904;52.278;20.972;2023-12-22T14:32:24;1.70;99.90
76967;DHT22;65904;52.278;20.972;2023-12-22T14:35:11;1.70;99.90
76967;DHT22;65904;52.278;20.972;2023-12-22T14:37:57;1.80;99.90
76967;DHT22;65904;52.278;20.972;2023-12-22T14:40:45;1.70;99.90
76967;DHT22;65904;52.278;20.972;2023-12-22T14:43:32;1.70;99.90
76967;DHT22;65904;52.278;20.972;2023-12-22T14:46:18;1.70;99.90
76967;DHT22;65904;52.278;20.972;2023-12-22T14:49:05;1.70;99.90
76967;DHT22;65904;52.278;20.972;2023-12-22T14:51:51;1.70;99.90
76967;DHT22;65904;52.278;20.972;2023-12-22T14:54:38;1.80;99.90
76967;DHT22;65904;52.278;20.972;2023-12-22T14:57:26;1.80;99.90
76967;DHT22;65904;52.278;20.972;2023-12-22T15:00:14;1.80;99.90
76967;DHT22;65904;52.278;20.972;2023-12-22T15:03:01;1.80;99.90
76967;DHT22;65904;52.278;20.972;2023-12-22T15:05:47;1.80;99.90
76967;DHT22;65904;52.278;20.972;2023-12-22T15:08:33;1.80;99.90
76967;DHT22;65904;52.278;20.972;2023-12-22T15:11:19;1.80;99.90
76967;DHT22;65904;52.278;20.972;2023-12-22T15:14:06;1.70;99.90
76967;DHT22;65904;52.278;20.972;2023-12-22T15:16:52;1.70;99.90
76967;DHT22;65904;52.278;20.972;2023-12-22T15:19:40;1.70;99.90
76967;DHT22;65904;52.278;20.972;2023-12-22T15:22:27;1.70;99.90
76967;DHT22;65904;52.278;20.972;2023-12-22T15:25:13;1.70;99.90
76967;DHT22;65904;52.278;20.972;2023-12-22T15:28:00;1.70;99.90
76967;DHT22;65904;52.278;20.972;2023-12-22T15:30:49;1.70;99.90
76967;DHT22;65904;52.278;20.972;2023-12-22T15:33:36;1.80;99.90
76967;DHT22;65904;52.278;20.972;2023-12-22T15:36:22;1.70;99.90
76967;DHT22;65904;52.278;20.972;2023-12-22T15:39:08;1.70;99.90
76967;DHT22;65904;52.278;20.972;2023-12-22T15:41:54;1.70;99.90
76967;DHT22;65904;52.278;20.972;2023-12-22T15:44:40;1.70;99.90
76967;DHT22;65904;52.278;20.972;2023-12-22T15:47:29;1.70;99.90
76967;DHT22;65904;52.278;20.972;2023-12-22T15:50:15;1.70;99.90
76967;DHT22;65904;52.278;20.972;2023-12-22T15:53:01;1.70;99.90
76967;DHT22;65904;52.278;20.972;2023-12-22T15:55:47;1.80;99.90
76967;DHT22;65904;52.278;20.972;2023-12-22T15:58:33;1.80;99.90
76967;DHT22;65904;52.278;20.972;2023-12-22T16:01:21;1.80;99.90
76967;DHT22;65904;52.278;20.972;2023-12-22T16:04:08;1.80;99.90
76967;DHT22;65904;52.278;20.972;2023-12-22T16:06:54;1.80;99.90
76967;DHT22;65904;52.278;20.972;2023-12-22T16:09:41;1.80;99.90
76967;DHT22;65904;52.278;20.972;2023-12-22T16:12:27;1.80;99.90
76967;DHT22;65904;52.278;20.972;2023-12-22T16:15:13;1.80;99.90
76967;DHT22;65904;52.278;20.972;2023-12-22T16:17:59;1.80;99.90
76967;DHT22;65904;52.278;20.972;2023-12-22T16:20:46;1.80;99.90
76967;DHT22;65904;52.278;20.972;2023-12-22T16:23:33;1.80;99.90
76967;DHT22;65904;52.278;20.972;2023-12-22T16:26:19;1.80;99.90
76967;DHT22;65904;52.278;20.972;2023-12-22T16:29:05;1.90;99.90
76967;DHT22;65904;52.278;20.972;2023-12-22T16:31:52;1.90;99.90
76967;DHT22;65904;52.278;20.972;2023-12-22T16:34:41;1.80;99.90
76967;DHT22;65904;52.278;20.972;2023-12-22T16:37:29;1.90;99.90
76967;DHT22;65904;52.278;20.972;2023-12-22T16:40:16;1.90;99.90
76967;DHT22;65904;52.278;20.972;2023-12-22T16:43:02;2.00;99.90
76967;DHT22;65904;52.278;20.972;2023-12-22T16:45:49;2.00;99.90
76967;DHT22;65904;52.278;20.972;2023-12-22T16:48:36;2.00;99.90
76967;DHT22;65904;52.278;20.972;2023-12-22T16:51:22;2.10;99.90
76967;DHT22;65904;52.278;20.972;2023-12-22T16:54:10;2.10;99.90
76967;DHT22;65904;52.278;20.972;2023-12-22T16:56:56;2.10;99.90
76967;DHT22;65904;52.278;20.972;2023-12-22T16:59:42;2.20;99.90
76967;DHT22;65904;52.278;20.972;2023-12-22T17:02:28;2.20;99.90
76967;DHT22;65904;52.278;20.972;2023-12-22T17:05:15;2.20;99.90
76967;DHT22;65904;52.278;20.972;2023-12-22T17:08:01;2.20;99.90
76967;DHT22;65904;52.278;20.972;2023-12-22T17:10:49;2.30;99.90
76967;DHT22;65904;52.278;20.972;2023-12-22T17:13:35;2.40;99.90
76967;DHT22;65904;52.278;20.972;2023-12-22T17:16:22;2.40;99.90
76967;DHT22;65904;52.278;20.972;2023-12-22T17:19:09;2.50;99.90
76967;DHT22;65904;52.278;20.972;2023-12-22T17:21:55;2.60;99.90
76967;DHT22;65904;52.278;20.972;2023-12-22T17:24:41;2.60;99.90
76967;DHT22;65904;52.278;20.972;2023-12-22T17:27:29;2.60;99.90
76967;DHT22;65904;52.278;20.972;2023-12-22T17:30:16;2.60;99.90
76967;DHT22;65904;52.278;20.972;2023-12-22T17:33:06;2.70;99.90
76967;DHT22;65904;52.278;20.972;2023-12-22T17:35:52;2.80;99.90